createdAt,value
2022-07-28T14:49:37.883Z,1.97
2022-07-28T14:52:01.862Z,1.60
2022-07-28T14:54:04.645Z,2.10
2022-07-28T14:56:13.882Z,1.73
2022-07-28T14:58:16.569Z,1.73
2022-07-28T15:00:21.471Z,1.43
2022-07-28T15:02:29.524Z,1.50
2022-07-28T15:04:33.059Z,2.10
2022-07-28T15:06:35.712Z,2.00
2022-07-28T15:08:39.920Z,1.47
2022-07-28T15:10:54.062Z,1.77
2022-07-28T15:12:59.016Z,1.83
2022-07-28T15:15:01.925Z,2.03
2022-07-28T15:17:06.912Z,1.90
2022-07-28T15:19:10.244Z,1.70
2022-07-28T15:21:15.926Z,1.50
2022-07-28T15:23:18.802Z,1.77
2022-07-28T15:25:22.865Z,1.93
2022-07-28T15:27:33.731Z,1.70
2022-07-28T15:29:38.694Z,2.07
2022-07-28T15:31:45.347Z,1.50
2022-07-28T15:33:54.893Z,1.73
2022-07-28T15:36:03.931Z,1.33
2022-07-28T15:38:06.574Z,1.33
2022-07-28T15:40:10.020Z,1.50
2022-07-28T15:42:14.524Z,1.57
2022-07-28T15:44:28.598Z,1.73
2022-07-28T15:46:33.347Z,1.60
2022-07-28T15:48:36.137Z,1.90
2022-07-28T15:50:38.855Z,1.60
2022-07-28T15:52:41.471Z,1.40
2022-07-28T15:54:44.110Z,1.50
2022-07-28T15:56:48.789Z,2.00
2022-07-28T15:58:52.664Z,1.90
2022-07-28T16:00:55.267Z,1.80
2022-07-28T16:02:58.972Z,1.60
2022-07-28T16:05:02.045Z,1.53
2022-07-28T16:07:15.619Z,2.03
2022-07-28T16:09:18.336Z,2.20
2022-07-28T16:11:20.946Z,1.93
2022-07-28T16:13:28.671Z,1.73
2022-07-28T16:15:40.615Z,2.00
2022-07-28T16:17:43.197Z,1.70
2022-07-28T16:19:49.361Z,2.07
2022-07-28T16:21:53.057Z,2.03
2022-07-28T16:23:55.679Z,2.00
2022-07-28T16:25:58.314Z,1.80
2022-07-28T16:28:03.358Z,1.70
2022-07-28T16:30:06.794Z,1.80
2022-07-28T16:32:11.062Z,1.90
2022-07-28T16:34:13.955Z,1.80
2022-07-28T16:36:16.927Z,1.63
2022-07-28T16:38:20.082Z,1.67
2022-07-28T16:40:22.779Z,1.90
2022-07-28T16:42:25.388Z,1.67
2022-07-28T16:44:28.059Z,2.03
2022-07-28T16:46:31.008Z,1.80
2022-07-28T16:48:35.025Z,2.20
2022-07-28T16:50:38.703Z,1.70
2022-07-28T16:52:41.660Z,2.03
2022-07-28T16:54:45.612Z,1.77
2022-07-28T16:56:50.311Z,2.70
2022-07-28T16:58:52.960Z,2.13
2022-07-28T17:00:55.699Z,2.30
2022-07-28T17:02:58.616Z,2.13
2022-07-28T17:05:02.694Z,2.37
2022-07-28T17:07:06.734Z,2.00
2022-07-28T17:09:12.374Z,2.77
2022-07-28T17:11:15.341Z,2.00
2022-07-28T17:13:19.424Z,2.00
2022-07-28T17:15:23.424Z,2.47
2022-07-28T17:17:26.190Z,2.00
2022-07-28T17:19:33.205Z,2.10
2022-07-28T17:21:37.378Z,1.90
2022-07-28T17:23:40.069Z,2.03
2022-07-28T17:25:59.530Z,2.37
2022-07-28T17:28:05.735Z,2.23
2022-07-28T17:30:09.073Z,2.07
2022-07-28T17:32:11.780Z,2.20
2022-07-28T17:34:15.167Z,2.20
2022-07-28T17:36:17.916Z,2.07
2022-07-28T17:38:27.135Z,2.20
2022-07-28T17:40:33.600Z,2.37
2022-07-28T17:42:38.587Z,1.67
2022-07-28T17:44:41.198Z,2.47
2022-07-28T17:46:45.310Z,2.10
2022-07-28T17:48:48.023Z,2.00
2022-07-28T17:50:51.345Z,2.10
2022-07-28T17:52:53.924Z,2.00
2022-07-28T17:55:09.152Z,1.60
2022-07-28T17:57:13.757Z,2.17
2022-07-28T17:59:16.376Z,2.07
2022-07-28T18:01:19.121Z,1.93
2022-07-28T18:03:22.612Z,2.40
2022-07-28T18:05:25.262Z,1.97
2022-07-28T18:07:27.842Z,2.40
2022-07-28T18:09:30.579Z,1.93
2022-07-28T18:11:34.493Z,2.03
2022-07-28T18:13:43.582Z,2.27
2022-07-28T18:16:01.213Z,2.27
2022-07-28T18:18:04.278Z,2.40
2022-07-28T18:20:07.644Z,2.17
2022-07-28T18:22:10.514Z,2.47
2022-07-28T18:24:13.609Z,2.33
2022-07-28T18:26:16.474Z,1.83
2022-07-28T18:28:20.428Z,2.60
2022-07-28T18:30:23.587Z,2.90
2022-07-28T18:32:26.214Z,3.00
2022-07-28T18:34:28.866Z,4.77
2022-07-28T18:36:31.750Z,2.70
2022-07-28T18:38:34.806Z,2.80
2022-07-28T18:40:37.387Z,4.90
2022-07-28T18:42:40.037Z,2.30
2022-07-28T18:44:43.898Z,3.70
2022-07-28T18:46:46.608Z,3.70
2022-07-28T18:48:53.744Z,2.83
2022-07-28T18:50:59.690Z,2.83
2022-07-28T18:53:02.745Z,3.50
2022-07-28T18:55:07.202Z,3.70
2022-07-28T18:57:09.820Z,5.40
2022-07-28T18:59:12.417Z,3.27
2022-07-28T19:01:16.651Z,3.77
2022-07-28T19:03:19.401Z,2.80
2022-07-28T19:05:22.020Z,3.73
2022-07-28T19:07:24.632Z,3.30
2022-07-28T19:09:27.637Z,3.60
2022-07-28T19:11:32.137Z,8.07
2022-07-28T19:13:34.705Z,5.37
2022-07-28T19:15:37.336Z,3.80
2022-07-28T19:17:41.747Z,3.53
2022-07-28T19:19:44.316Z,3.00
2022-07-28T19:21:46.933Z,3.90
2022-07-28T19:23:49.543Z,4.40
2022-07-28T19:25:52.500Z,3.00
2022-07-28T19:27:55.510Z,3.50
2022-07-28T19:29:59.261Z,3.60
2022-07-28T19:32:03.090Z,4.20
2022-07-28T19:34:07.420Z,7.60
2022-07-28T19:36:13.395Z,4.97
2022-07-28T19:38:15.970Z,5.80
2022-07-28T19:40:18.908Z,2.80
2022-07-28T19:42:21.659Z,3.30
2022-07-28T19:44:24.253Z,4.43
2022-07-28T19:46:26.922Z,2.70
2022-07-28T19:48:30.037Z,4.20
2022-07-28T19:50:34.106Z,2.90
2022-07-28T19:52:37.806Z,3.30
2022-07-28T19:54:42.656Z,2.80
2022-07-28T19:56:53.765Z,3.60
2022-07-28T19:58:58.089Z,2.80
2022-07-28T20:01:00.843Z,2.83
2022-07-28T20:03:03.473Z,3.67
2022-07-28T20:05:06.720Z,2.77
2022-07-28T20:07:10.621Z,3.20
2022-07-28T20:09:13.617Z,2.80
2022-07-28T20:11:16.227Z,3.60
2022-07-28T20:13:18.802Z,3.30
2022-07-28T20:15:22.100Z,5.33
2022-07-28T20:17:37.955Z,5.00
2022-07-28T20:19:41.837Z,7.30
2022-07-28T20:21:44.472Z,4.03
2022-07-28T20:23:49.072Z,3.97
2022-07-28T20:25:51.712Z,4.80
2022-07-28T20:27:54.917Z,4.47
2022-07-28T20:29:58.711Z,4.30
2022-07-28T20:32:01.302Z,4.07
2022-07-28T20:34:06.561Z,3.93
2022-07-28T20:36:09.170Z,3.70
2022-07-28T20:38:12.098Z,3.67
2022-07-28T20:40:15.944Z,4.10
2022-07-28T20:42:18.841Z,3.57
2022-07-28T20:44:29.659Z,5.73
2022-07-28T20:46:33.483Z,3.90
2022-07-28T20:48:36.131Z,5.70
2022-07-28T20:50:39.197Z,4.73
2022-07-28T20:52:42.339Z,4.20
2022-07-28T20:54:44.907Z,4.90
2022-07-28T20:56:48.856Z,4.80
2022-07-28T20:58:51.630Z,5.03
2022-07-28T21:00:54.639Z,4.50
2022-07-28T21:02:57.353Z,4.47
2022-07-28T21:04:59.982Z,4.40
2022-07-28T21:07:04.135Z,3.60
2022-07-28T21:09:06.991Z,4.27
2022-07-28T21:11:09.542Z,3.67
2022-07-28T21:13:13.415Z,3.57
2022-07-28T21:15:21.756Z,4.30
2022-07-28T21:17:26.515Z,3.60
2022-07-28T21:19:29.166Z,4.40
2022-07-28T21:21:31.783Z,3.77
2022-07-28T21:23:34.719Z,3.57
2022-07-28T21:25:37.335Z,3.50
2022-07-28T21:27:53.862Z,3.47
2022-07-28T21:30:01.233Z,3.80
2022-07-28T21:32:06.142Z,3.97
2022-07-28T21:34:09.312Z,3.87
2022-07-28T21:36:11.918Z,4.10
2022-07-28T21:38:14.947Z,3.57
2022-07-28T21:40:17.556Z,3.80
2022-07-28T21:42:21.772Z,3.87
2022-07-28T21:44:24.459Z,3.57
2022-07-28T21:46:29.375Z,3.70
2022-07-28T21:48:32.131Z,5.43
2022-07-28T21:50:36.957Z,4.23
2022-07-28T21:52:39.530Z,3.60
2022-07-28T21:54:42.519Z,4.10
2022-07-28T21:56:47.647Z,5.53
2022-07-28T21:58:50.945Z,4.13
2022-07-28T22:00:53.690Z,4.17
2022-07-28T22:03:00.200Z,4.47
2022-07-28T22:05:03.117Z,4.40
2022-07-28T22:07:05.816Z,3.90
2022-07-28T22:09:08.523Z,5.03
2022-07-28T22:11:11.614Z,4.77
2022-07-28T22:13:18.458Z,3.77
2022-07-28T22:15:21.058Z,4.40
2022-07-28T22:17:23.616Z,3.60
2022-07-28T22:19:28.435Z,3.50
2022-07-28T22:21:32.843Z,4.43
2022-07-28T22:23:37.920Z,3.47
2022-07-28T22:25:40.558Z,3.83
2022-07-28T22:27:43.145Z,4.10
2022-07-28T22:29:52.138Z,4.17
2022-07-28T22:31:59.200Z,3.20
2022-07-28T22:34:02.700Z,3.10
2022-07-28T22:36:08.583Z,3.40
2022-07-28T22:38:11.387Z,4.00
2022-07-28T22:40:15.983Z,4.20
2022-07-28T22:42:18.875Z,3.37
2022-07-28T22:44:21.481Z,4.90
2022-07-28T22:46:24.182Z,3.10
2022-07-28T22:48:26.898Z,2.90
2022-07-28T22:50:29.476Z,3.87
2022-07-28T22:52:34.812Z,2.93
2022-07-28T22:54:38.177Z,2.47
2022-07-28T22:56:41.172Z,3.10
2022-07-28T22:58:43.776Z,3.23
2022-07-28T23:00:46.351Z,3.47
2022-07-28T23:02:51.744Z,2.80
2022-07-28T23:04:54.719Z,3.40
2022-07-28T23:06:57.379Z,4.83
2022-07-28T23:09:01.237Z,3.40
2022-07-28T23:11:06.058Z,3.60
2022-07-28T23:13:08.729Z,3.00
2022-07-28T23:15:11.320Z,3.67
2022-07-28T23:17:13.898Z,3.70
2022-07-28T23:19:16.893Z,4.80
2022-07-28T23:21:19.486Z,3.03
2022-07-28T23:23:22.055Z,3.30
2022-07-28T23:25:26.033Z,2.63
2022-07-28T23:27:29.171Z,2.93
2022-07-28T23:29:31.730Z,2.50
2022-07-28T23:31:34.441Z,3.00
2022-07-28T23:33:55.697Z,3.00
2022-07-28T23:36:00.303Z,3.37
2022-07-28T23:38:02.886Z,2.73
2022-07-28T23:40:06.163Z,2.40
2022-07-28T23:42:10.423Z,2.87
2022-07-28T23:44:14.416Z,2.70
2022-07-28T23:46:17.391Z,2.00
2022-07-28T23:48:20.056Z,2.83
2022-07-28T23:50:23.115Z,2.60
2022-07-28T23:52:25.797Z,2.27
2022-07-28T23:54:28.548Z,2.30
2022-07-28T23:56:31.145Z,2.37
2022-07-28T23:58:35.528Z,2.40
